Old Hickory, Tennessee
Current Conditions -  °F | °C
As of 1:53 PM on Thursday 29 Jan 2015 (Local Time) from KBNA Reporting Station
Broken Clouds Broken Clouds  
Wind Chill: 65°   Ceiling: 5000
Heat Index: 65°   Visibility: 10mi
Dew Point: 41°   Wind: 10mph
Humidity: 42%   Direction: 280°W
Pressure: 30"   Gusts: 21mph
Location:  36.26°N, 86.65°W
Report Text: KBNA 291953Z 28009G18KT 10SM BKN050 BKN070 BKN250 18/05 A3000 RMK AO2 SLP157 T01830050
Loading
Personal Weather Stations






























Interactive Weather Map New forecast layout! Learn more

10-Day Weather Forecast

Advertisements
Track Severe Weather on mobile